createdAt,value
2023-01-17T00:02:08.024Z,0.80
2023-01-17T00:04:53.810Z,1.85
2023-01-17T00:07:41.092Z,1.02
2023-01-17T00:10:11.841Z,4.50
2023-01-17T00:12:46.594Z,1.38
2023-01-17T00:15:14.538Z,1.05
2023-01-17T00:17:42.359Z,1.73
2023-01-17T00:20:32.116Z,2.20
2023-01-17T00:23:17.340Z,1.10
2023-01-17T00:26:02.459Z,2.45
2023-01-17T00:28:32.169Z,2.33
2023-01-17T00:30:59.204Z,2.42
2023-01-17T00:33:26.241Z,3.05
2023-01-17T00:35:54.249Z,2.88
2023-01-17T00:38:22.746Z,1.95
2023-01-17T00:40:49.800Z,2.75
2023-01-17T00:43:37.581Z,2.53
2023-01-17T00:46:24.446Z,1.83
2023-01-17T00:49:10.456Z,1.45
2023-01-17T00:51:57.039Z,2.63
2023-01-17T00:54:42.118Z,3.88
2023-01-17T00:57:27.325Z,1.40
2023-01-17T01:00:13.089Z,2.22
2023-01-17T01:03:00.132Z,2.00
2023-01-17T01:05:45.457Z,1.33
2023-01-17T01:08:36.208Z,1.45
2023-01-17T01:11:24.409Z,0.93
2023-01-17T01:14:10.034Z,1.20
2023-01-17T01:16:55.878Z,1.02
2023-01-17T01:19:42.822Z,2.03
2023-01-17T01:22:28.122Z,2.35
2023-01-17T01:25:13.511Z,1.17
2023-01-17T01:27:58.635Z,3.90
2023-01-17T01:30:43.895Z,1.38
2023-01-17T01:33:19.168Z,0.90
2023-01-17T01:35:50.419Z,1.48
2023-01-17T01:38:19.154Z,1.10
2023-01-17T01:40:49.698Z,1.80
2023-01-17T01:43:20.067Z,2.33
2023-01-17T01:45:53.497Z,2.53
2023-01-17T01:48:33.658Z,1.70
2023-01-17T01:51:05.535Z,1.23
2023-01-17T01:53:36.757Z,1.30
2023-01-17T01:56:07.007Z,4.70
2023-01-17T01:58:37.765Z,1.33
2023-01-17T02:01:08.191Z,2.90
2023-01-17T02:03:38.679Z,1.55
2023-01-17T02:06:20.448Z,3.42
2023-01-17T02:08:49.320Z,1.48
2023-01-17T02:11:17.059Z,3.53
2023-01-17T02:13:45.021Z,2.63
2023-01-17T02:16:27.017Z,2.35
2023-01-17T02:19:01.100Z,3.83
2023-01-17T02:21:36.182Z,3.10
2023-01-17T02:24:30.488Z,1.50
2023-01-17T02:27:07.117Z,3.13
2023-01-17T02:30:28.665Z,2.50
2023-01-17T02:33:11.091Z,4.72
2023-01-17T02:35:45.277Z,2.97
2023-01-17T02:38:23.394Z,2.88
2023-01-17T02:40:56.655Z,4.47
2023-01-17T02:43:25.821Z,3.72
2023-01-17T02:45:55.100Z,3.78
2023-01-17T02:48:28.389Z,3.25
2023-01-17T02:51:33.218Z,2.65
2023-01-17T02:54:17.303Z,6.28
2023-01-17T02:56:54.063Z,2.70
2023-01-17T02:59:34.380Z,2.63
2023-01-17T03:02:13.352Z,4.95
2023-01-17T03:04:48.142Z,2.60
2023-01-17T03:07:18.673Z,4.85
2023-01-17T03:09:49.961Z,5.97
2023-01-17T03:12:17.819Z,5.60
2023-01-17T03:14:45.627Z,6.18
2023-01-17T03:17:14.965Z,2.72
2023-01-17T03:19:43.144Z,4.90
2023-01-17T03:22:10.964Z,3.35
2023-01-17T03:24:38.747Z,7.05
2023-01-17T03:27:06.538Z,5.78
2023-01-17T03:29:34.391Z,4.95
2023-01-17T03:32:02.196Z,4.65
2023-01-17T03:34:31.356Z,6.70
2023-01-17T03:36:59.187Z,3.70
2023-01-17T03:39:27.021Z,3.67
2023-01-17T03:41:54.847Z,5.07
2023-01-17T03:44:22.632Z,5.70
2023-01-17T03:46:50.461Z,3.53
2023-01-17T03:49:18.460Z,3.58
2023-01-17T03:51:47.625Z,2.30
2023-01-17T03:54:15.650Z,4.82
2023-01-17T03:56:43.587Z,5.32
2023-01-17T03:59:13.131Z,1.60
2023-01-17T04:01:41.516Z,4.07
2023-01-17T04:04:09.479Z,5.70
2023-01-17T04:06:37.286Z,6.65
2023-01-17T04:09:06.476Z,7.25
2023-01-17T04:11:34.407Z,5.47
2023-01-17T04:14:02.175Z,4.50
2023-01-17T04:16:31.998Z,3.03
2023-01-17T04:18:59.831Z,5.65
2023-01-17T04:21:27.685Z,6.68
2023-01-17T04:23:55.504Z,7.13
2023-01-17T04:26:24.699Z,4.05
2023-01-17T04:28:52.544Z,5.60
2023-01-17T04:31:20.433Z,5.82
2023-01-17T04:33:48.301Z,4.43
2023-01-17T04:36:16.126Z,4.70
2023-01-17T04:38:43.902Z,6.97
2023-01-17T04:41:11.741Z,6.57
2023-01-17T04:43:40.872Z,4.75
2023-01-17T04:46:10.906Z,6.15
2023-01-17T04:48:38.821Z,6.63
2023-01-17T04:51:07.267Z,5.07
2023-01-17T04:53:35.110Z,4.35
2023-01-17T04:56:03.017Z,7.00
2023-01-17T04:58:31.635Z,3.50
2023-01-17T05:01:04.240Z,4.10
2023-01-17T05:03:32.544Z,6.18
2023-01-17T05:06:00.435Z,2.67
2023-01-17T05:08:28.442Z,5.72
2023-01-17T05:10:56.317Z,6.18
2023-01-17T05:13:24.115Z,3.67
2023-01-17T05:15:52.130Z,9.00
2023-01-17T05:18:21.436Z,7.75
2023-01-17T05:20:49.279Z,6.38
2023-01-17T05:23:17.049Z,6.53
2023-01-17T05:25:45.182Z,4.95
2023-01-17T05:28:14.332Z,2.72
2023-01-17T05:30:42.334Z,8.40
2023-01-17T05:33:11.200Z,2.70
2023-01-17T05:35:40.455Z,3.33
2023-01-17T05:38:08.248Z,6.45
2023-01-17T05:40:36.497Z,3.55
2023-01-17T05:43:04.874Z,6.88
2023-01-17T05:45:34.493Z,4.80
2023-01-17T05:48:02.687Z,5.82
2023-01-17T05:50:33.149Z,6.70
2023-01-17T05:53:04.651Z,8.30
2023-01-17T05:55:33.027Z,6.78
2023-01-17T05:58:01.484Z,7.60
2023-01-17T06:00:30.437Z,4.55
2023-01-17T06:02:59.961Z,7.28
2023-01-17T06:05:29.867Z,7.43
2023-01-17T06:07:58.465Z,6.95
2023-01-17T06:10:29.423Z,7.20
2023-01-17T06:13:05.765Z,5.38
2023-01-17T06:15:35.369Z,7.20
2023-01-17T06:18:07.399Z,6.25
2023-01-17T06:20:35.308Z,5.72
2023-01-17T06:23:04.350Z,5.85
2023-01-17T06:25:37.767Z,7.18
2023-01-17T06:28:06.061Z,5.28
2023-01-17T06:30:33.929Z,4.55
2023-01-17T06:33:01.711Z,6.03
2023-01-17T06:35:30.041Z,11.55
2023-01-17T06:37:59.763Z,7.30
2023-01-17T06:40:28.658Z,5.85
2023-01-17T06:43:01.092Z,6.38
2023-01-17T06:45:29.760Z,6.38
2023-01-17T06:47:59.153Z,7.80
2023-01-17T06:50:27.306Z,6.70
2023-01-17T06:52:57.072Z,5.60
2023-01-17T06:55:25.950Z,5.72
2023-01-17T06:57:54.890Z,7.10
2023-01-17T07:00:24.753Z,5.07
2023-01-17T07:02:52.935Z,7.93
2023-01-17T07:05:21.130Z,5.90
2023-01-17T07:07:49.051Z,8.60
2023-01-17T07:10:17.474Z,8.07
2023-01-17T07:12:45.284Z,9.82
2023-01-17T07:15:13.535Z,7.43
2023-01-17T07:17:42.723Z,6.40
2023-01-17T07:20:11.659Z,6.63
2023-01-17T07:22:39.495Z,8.32
2023-01-17T07:25:08.694Z,11.48
2023-01-17T07:27:36.482Z,6.15
2023-01-17T07:30:04.784Z,7.72
2023-01-17T07:32:32.596Z,8.13
2023-01-17T07:35:01.757Z,9.85
2023-01-17T07:37:29.801Z,7.60
2023-01-17T07:39:57.566Z,8.00
2023-01-17T07:42:25.440Z,7.47
2023-01-17T07:44:53.224Z,8.80
2023-01-17T07:47:21.252Z,9.05
2023-01-17T07:49:49.061Z,7.45
2023-01-17T07:52:18.410Z,9.75
2023-01-17T07:54:46.261Z,8.45
2023-01-17T07:57:14.175Z,8.18
2023-01-17T07:59:41.942Z,10.38
2023-01-17T08:02:17.564Z,10.77
2023-01-17T08:04:45.420Z,7.00
2023-01-17T08:07:14.085Z,9.88
2023-01-17T08:09:44.671Z,8.43
2023-01-17T08:12:12.541Z,10.57
2023-01-17T08:14:40.303Z,8.57
2023-01-17T08:17:08.745Z,9.80
2023-01-17T08:19:36.494Z,9.65
2023-01-17T08:22:04.420Z,11.05
2023-01-17T08:24:32.163Z,9.98
2023-01-17T08:27:01.439Z,10.20
2023-01-17T08:29:29.481Z,8.40
2023-01-17T08:31:57.377Z,7.47
2023-01-17T08:34:26.114Z,9.00
2023-01-17T08:36:54.168Z,7.55
2023-01-17T08:39:22.324Z,6.05
2023-01-17T08:41:50.337Z,7.68
2023-01-17T08:44:20.053Z,7.70
2023-01-17T08:46:47.891Z,7.35
2023-01-17T08:49:15.711Z,7.90
2023-01-17T08:51:43.746Z,7.40
2023-01-17T08:54:13.275Z,6.03
2023-01-17T08:56:42.710Z,6.68
2023-01-17T08:59:11.612Z,7.32
2023-01-17T09:01:41.675Z,7.25
2023-01-17T09:04:09.803Z,7.20
2023-01-17T09:06:38.078Z,6.80
2023-01-17T09:09:07.106Z,9.73
2023-01-17T09:11:35.508Z,6.60
2023-01-17T09:14:03.482Z,6.78
2023-01-17T09:16:32.048Z,7.10
2023-01-17T09:19:01.602Z,7.60
2023-01-17T09:21:29.407Z,6.25
2023-01-17T09:23:57.208Z,5.97
2023-01-17T09:26:27.155Z,6.68
2023-01-17T09:28:55.005Z,6.00
2023-01-17T09:31:24.705Z,6.35
2023-01-17T09:33:53.156Z,5.82
2023-01-17T09:36:23.862Z,6.55
2023-01-17T09:38:57.451Z,9.10
2023-01-17T09:41:28.475Z,3.70
2023-01-17T09:44:02.449Z,4.85
2023-01-17T09:46:33.305Z,4.57
2023-01-17T09:49:08.296Z,5.30
2023-01-17T09:51:37.948Z,4.00
2023-01-17T09:54:06.462Z,4.25
2023-01-17T09:56:38.718Z,5.38
2023-01-17T09:59:33.201Z,6.35
2023-01-17T10:02:17.055Z,5.35
2023-01-17T10:05:14.554Z,4.18
2023-01-17T10:07:58.916Z,4.78
2023-01-17T10:10:38.389Z,5.18
2023-01-17T10:13:19.219Z,4.20
2023-01-17T10:16:13.448Z,4.70
2023-01-17T10:18:56.142Z,5.40
2023-01-17T10:21:30.688Z,5.38
2023-01-17T10:24:18.413Z,4.53
2023-01-17T10:26:49.125Z,4.95
2023-01-17T10:29:20.978Z,4.95
2023-01-17T10:31:55.186Z,5.70
2023-01-17T10:34:28.903Z,3.40
2023-01-17T10:37:02.876Z,4.03
2023-01-17T10:39:32.275Z,2.92
2023-01-17T10:42:07.572Z,4.05
2023-01-17T10:44:44.359Z,4.28
2023-01-17T10:47:20.532Z,5.07
2023-01-17T10:49:52.835Z,2.83
2023-01-17T10:52:33.912Z,2.60
2023-01-17T10:55:13.976Z,3.13
2023-01-17T10:57:43.392Z,4.20
2023-01-17T11:00:43.835Z,3.35
2023-01-17T11:03:13.272Z,4.40
2023-01-17T11:05:42.762Z,7.43
2023-01-17T11:08:13.405Z,7.97
2023-01-17T11:10:44.822Z,4.45
2023-01-17T11:13:26.906Z,8.23
2023-01-17T11:15:58.694Z,4.15
2023-01-17T11:18:30.084Z,5.50
2023-01-17T11:21:11.949Z,3.22
2023-01-17T11:23:42.595Z,3.03
2023-01-17T11:26:14.027Z,5.65
2023-01-17T11:28:42.308Z,5.75
2023-01-17T11:31:25.926Z,5.28
2023-01-17T11:34:09.602Z,3.90
2023-01-17T11:36:43.149Z,2.90
2023-01-17T11:39:29.075Z,6.87
2023-01-17T11:41:58.284Z,6.90
2023-01-17T11:44:28.789Z,3.78
2023-01-17T11:47:18.933Z,7.70
2023-01-17T11:49:48.563Z,4.93
2023-01-17T11:52:23.378Z,8.52
2023-01-17T11:54:53.712Z,6.00
2023-01-17T11:57:26.966Z,6.68
2023-01-17T12:00:04.629Z,11.10
2023-01-17T12:02:59.685Z,3.65
2023-01-17T12:05:53.733Z,3.38
2023-01-17T12:08:32.163Z,5.07
2023-01-17T12:11:07.663Z,7.03
2023-01-17T12:14:00.933Z,6.68
2023-01-17T12:16:44.652Z,5.50
2023-01-17T12:19:34.539Z,3.90
2023-01-17T12:22:19.218Z,4.60
2023-01-17T12:25:02.777Z,6.18
2023-01-17T12:27:41.977Z,7.20
2023-01-17T12:30:39.123Z,6.93
2023-01-17T12:33:26.291Z,6.40
2023-01-17T12:35:57.325Z,6.18
2023-01-17T12:38:32.947Z,4.70
2023-01-17T12:41:06.307Z,6.70
2023-01-17T12:43:38.034Z,6.60
2023-01-17T12:46:16.881Z,4.55
2023-01-17T12:48:45.436Z,3.08
2023-01-17T12:51:19.041Z,6.38
2023-01-17T12:53:57.679Z,4.47
2023-01-17T12:56:30.077Z,5.65
2023-01-17T12:59:20.149Z,4.68
2023-01-17T13:01:57.583Z,6.80
2023-01-17T13:04:28.711Z,6.10
2023-01-17T13:07:07.454Z,9.85
2023-01-17T13:09:40.504Z,6.10
2023-01-17T13:12:13.876Z,5.75
2023-01-17T13:14:42.145Z,7.00
2023-01-17T13:17:28.001Z,4.72
2023-01-17T13:20:00.900Z,3.67
2023-01-17T13:22:29.901Z,4.93
2023-01-17T13:25:04.556Z,3.58
2023-01-17T13:27:53.951Z,5.10
2023-01-17T13:30:36.406Z,3.97
2023-01-17T13:33:37.312Z,3.92
2023-01-17T13:36:19.582Z,6.45
2023-01-17T13:39:01.636Z,3.25
2023-01-17T13:41:43.139Z,3.38
2023-01-17T13:44:25.396Z,7.38
2023-01-17T13:46:55.726Z,3.95
2023-01-17T13:49:34.895Z,4.07
2023-01-17T13:52:07.518Z,3.78
2023-01-17T13:54:43.356Z,4.93
2023-01-17T13:57:36.177Z,7.80
2023-01-17T14:00:41.851Z,1.02
2023-01-17T14:03:11.844Z,4.65
2023-01-17T14:05:57.367Z,5.10
2023-01-17T14:08:27.268Z,3.72
2023-01-17T14:11:06.239Z,4.30
2023-01-17T14:13:37.091Z,2.00
2023-01-17T14:16:23.933Z,3.15
2023-01-17T14:18:53.246Z,1.38
2023-01-17T14:21:24.478Z,6.25
2023-01-17T14:24:16.692Z,2.65
2023-01-17T14:26:48.226Z,5.85
2023-01-17T14:29:53.243Z,2.33
2023-01-17T14:32:23.549Z,4.63
2023-01-17T14:34:53.043Z,7.80
2023-01-17T14:37:45.701Z,3.70
2023-01-17T14:40:20.431Z,6.38
2023-01-17T14:42:53.515Z,2.67
2023-01-17T14:45:27.424Z,1.95
2023-01-17T14:47:57.254Z,4.85
2023-01-17T14:50:29.322Z,5.25
2023-01-17T14:53:18.365Z,3.20
2023-01-17T14:55:56.734Z,4.00
2023-01-17T14:58:26.595Z,2.45
2023-01-17T15:00:59.825Z,5.78
2023-01-17T15:03:28.363Z,4.43
2023-01-17T15:05:57.991Z,4.97
2023-01-17T15:08:35.321Z,5.18
2023-01-17T15:11:08.562Z,4.88
2023-01-17T15:13:44.770Z,2.97
2023-01-17T15:16:22.365Z,4.80
2023-01-17T15:18:50.583Z,7.70
2023-01-17T15:21:20.943Z,4.72
2023-01-17T15:23:53.986Z,4.90
2023-01-17T15:26:25.412Z,7.18
2023-01-17T15:28:54.378Z,5.70
2023-01-17T15:31:39.978Z,8.52
2023-01-17T15:34:10.190Z,4.63
2023-01-17T15:36:38.515Z,6.32
2023-01-17T15:39:20.012Z,3.08
2023-01-17T15:41:49.701Z,5.90
2023-01-17T15:44:33.383Z,5.07
2023-01-17T15:47:28.984Z,4.72
2023-01-17T15:49:57.105Z,4.07
2023-01-17T15:52:24.953Z,4.47
2023-01-17T15:54:58.749Z,6.32
2023-01-17T15:57:28.670Z,8.55
2023-01-17T16:00:00.569Z,8.43
2023-01-17T16:02:34.202Z,10.90
2023-01-17T16:05:04.199Z,10.85
2023-01-17T16:07:35.037Z,7.85
2023-01-17T16:10:09.534Z,9.25
2023-01-17T16:12:37.322Z,4.95
2023-01-17T16:15:12.771Z,7.72
2023-01-17T16:17:42.603Z,6.00
2023-01-17T16:20:16.033Z,7.85
2023-01-17T16:22:44.614Z,11.30
2023-01-17T16:25:17.434Z,9.25
2023-01-17T16:27:45.804Z,7.75
2023-01-17T16:30:16.412Z,11.07
2023-01-17T16:32:46.857Z,12.55
2023-01-17T16:35:18.922Z,13.32
2023-01-17T16:37:50.261Z,12.25
2023-01-17T16:40:21.094Z,11.13
2023-01-17T16:42:49.148Z,10.10
2023-01-17T16:45:18.003Z,9.90
2023-01-17T16:47:48.129Z,9.25
2023-01-17T16:50:18.106Z,11.18
2023-01-17T16:52:45.945Z,10.25
2023-01-17T16:55:16.496Z,9.52
2023-01-17T16:57:45.840Z,8.60
2023-01-17T17:00:14.473Z,12.48
2023-01-17T17:02:42.397Z,10.35
2023-01-17T17:05:11.642Z,11.82
2023-01-17T17:07:42.816Z,15.25
2023-01-17T17:10:11.592Z,12.95
2023-01-17T17:12:39.503Z,12.30
2023-01-17T17:15:10.209Z,15.70
2023-01-17T17:17:39.104Z,13.70
2023-01-17T17:20:10.596Z,15.52
2023-01-17T17:22:38.626Z,11.98
2023-01-17T17:25:07.702Z,16.65
2023-01-17T17:27:35.623Z,16.60
2023-01-17T17:30:03.419Z,18.35
2023-01-17T17:32:32.605Z,18.65
2023-01-17T17:35:00.482Z,17.50
2023-01-17T17:37:29.112Z,16.98
2023-01-17T17:39:57.126Z,16.40
2023-01-17T17:42:25.617Z,19.23
2023-01-17T17:44:53.702Z,18.85
2023-01-17T17:47:21.571Z,18.60
2023-01-17T17:49:50.734Z,20.05
2023-01-17T17:52:18.564Z,21.58
2023-01-17T17:54:46.323Z,21.17
2023-01-17T17:57:14.348Z,18.65
2023-01-17T17:59:42.125Z,18.98
2023-01-17T18:02:11.600Z,19.20
2023-01-17T18:04:39.758Z,20.45
2023-01-17T18:07:08.964Z,18.92
2023-01-17T18:09:36.772Z,19.75
2023-01-17T18:12:05.376Z,24.15
2023-01-17T18:14:33.964Z,21.42
2023-01-17T18:17:01.826Z,26.27
2023-01-17T18:19:29.793Z,24.52
2023-01-17T18:21:58.145Z,29.17
2023-01-17T18:24:28.327Z,29.27
2023-01-17T18:26:57.890Z,19.27
2023-01-17T18:29:27.350Z,24.10
2023-01-17T18:31:55.759Z,20.55
2023-01-17T18:34:27.008Z,15.38
2023-01-17T18:36:54.905Z,14.02
2023-01-17T18:39:25.393Z,14.82
2023-01-17T18:41:55.103Z,13.95
2023-01-17T18:44:23.226Z,23.23
2023-01-17T18:46:51.431Z,14.20
2023-01-17T18:49:19.504Z,13.77
2023-01-17T18:51:50.578Z,14.98
2023-01-17T18:54:19.891Z,17.90
2023-01-17T18:56:48.126Z,18.70
2023-01-17T18:59:19.695Z,22.27
2023-01-17T19:01:47.970Z,22.08
2023-01-17T19:04:17.465Z,26.33
2023-01-17T19:06:47.125Z,26.38
2023-01-17T19:09:16.294Z,24.75
2023-01-17T19:11:45.178Z,22.17
2023-01-17T19:14:14.398Z,19.08
2023-01-17T19:16:44.341Z,19.88
2023-01-17T19:19:13.859Z,20.60
2023-01-17T19:21:41.792Z,23.08
2023-01-17T19:24:13.029Z,18.05
2023-01-17T19:26:41.190Z,18.08
2023-01-17T19:29:08.982Z,20.55
2023-01-17T19:31:42.335Z,19.10
2023-01-17T19:34:14.051Z,22.95
2023-01-17T19:36:42.444Z,23.15
2023-01-17T19:39:10.929Z,23.30
2023-01-17T19:41:42.599Z,23.27
2023-01-17T19:44:12.058Z,18.73
2023-01-17T19:46:39.937Z,27.92
2023-01-17T19:49:09.445Z,28.55
2023-01-17T19:51:39.362Z,24.10
2023-01-17T19:54:08.454Z,30.85
2023-01-17T19:56:36.680Z,28.42
2023-01-17T19:59:04.658Z,28.38
2023-01-17T20:01:34.483Z,28.25
2023-01-17T20:04:03.223Z,30.15
2023-01-17T20:06:33.329Z,32.42
2023-01-17T20:09:02.956Z,29.27
2023-01-17T20:11:30.811Z,28.30
2023-01-17T20:14:00.234Z,29.77
2023-01-17T20:16:30.053Z,28.58
2023-01-17T20:18:59.144Z,28.35
2023-01-17T20:21:28.848Z,28.38
2023-01-17T20:23:58.950Z,22.73
2023-01-17T20:26:34.508Z,27.60
2023-01-17T20:29:06.795Z,26.75
2023-01-17T20:31:38.157Z,24.05
2023-01-17T20:34:07.213Z,19.17
2023-01-17T20:36:36.969Z,18.55
2023-01-17T20:39:06.648Z,19.60
2023-01-17T20:41:37.821Z,18.27
2023-01-17T20:44:07.167Z,18.95
2023-01-17T20:46:40.402Z,19.48
2023-01-17T20:49:12.969Z,21.33
2023-01-17T20:51:41.271Z,20.48
2023-01-17T20:54:13.239Z,29.65
2023-01-17T20:56:43.281Z,23.15
2023-01-17T20:59:15.319Z,32.53
2023-01-17T21:01:44.573Z,34.30
2023-01-17T21:04:12.956Z,29.25
2023-01-17T21:06:41.846Z,32.00
2023-01-17T21:09:12.951Z,30.63
2023-01-17T21:11:42.247Z,29.20
2023-01-17T21:14:10.552Z,31.30
2023-01-17T21:16:38.732Z,25.15
2023-01-17T21:19:09.114Z,23.15
2023-01-17T21:21:36.956Z,26.35
2023-01-17T21:24:05.952Z,24.90
2023-01-17T21:26:44.493Z,22.38
2023-01-17T21:29:15.820Z,21.42
2023-01-17T21:31:45.136Z,23.70
2023-01-17T21:34:13.615Z,20.92
2023-01-17T21:36:43.130Z,22.52
2023-01-17T21:39:13.632Z,33.40
2023-01-17T21:41:43.134Z,24.65
2023-01-17T21:44:19.654Z,23.48
2023-01-17T21:46:48.157Z,26.05
2023-01-17T21:49:17.109Z,25.27
2023-01-17T21:52:02.640Z,23.40
2023-01-17T21:57:35.188Z,22.33
2023-01-17T22:00:06.312Z,20.00
2023-01-17T22:02:39.780Z,18.65
2023-01-17T22:05:08.753Z,19.27
2023-01-17T22:07:38.916Z,16.30
2023-01-17T22:10:08.506Z,17.85
2023-01-17T22:12:36.607Z,19.95
2023-01-17T22:15:07.186Z,17.17
2023-01-17T22:17:38.209Z,21.02
2023-01-17T22:20:11.485Z,19.52
2023-01-17T22:22:39.319Z,17.70
2023-01-17T22:25:09.308Z,18.70
2023-01-17T22:27:37.360Z,16.00
2023-01-17T22:30:12.814Z,18.73
2023-01-17T22:32:40.848Z,18.40
2023-01-17T22:35:09.648Z,22.70
2023-01-17T22:37:37.635Z,19.17
2023-01-17T22:40:06.496Z,19.48
2023-01-17T22:42:35.151Z,19.27
2023-01-17T22:47:33.086Z,22.80
2023-01-17T22:50:00.982Z,19.92
2023-01-17T22:52:29.119Z,20.45
2023-01-17T22:54:57.173Z,19.08
2023-01-17T22:57:25.487Z,22.85
2023-01-17T22:59:53.773Z,19.50
2023-01-17T23:02:21.743Z,22.90
2023-01-17T23:04:51.283Z,22.30
2023-01-17T23:07:19.119Z,23.92
2023-01-17T23:09:47.003Z,23.05
2023-01-17T23:12:14.922Z,19.92
2023-01-17T23:15:00.541Z,25.85
2023-01-17T23:17:46.151Z,21.75
2023-01-17T23:22:43.236Z,22.65
2023-01-17T23:25:13.306Z,22.02
2023-01-17T23:28:00.841Z,25.38
2023-01-17T23:30:34.526Z,26.95
2023-01-17T23:33:05.913Z,19.85
2023-01-17T23:35:41.714Z,22.83
2023-01-17T23:38:30.043Z,24.08
2023-01-17T23:41:20.165Z,19.50
2023-01-17T23:43:51.734Z,23.75
2023-01-17T23:46:19.753Z,22.55
2023-01-17T23:48:48.141Z,23.85
2023-01-17T23:51:17.490Z,26.85
2023-01-17T23:53:45.351Z,23.75
2023-01-17T23:56:16.160Z,22.65
2023-01-17T23:58:44.700Z,21.42
